1871 Hurricane NOT_NAMED (1871237N18325)


IBTrACS version v04r00. Visit IBTrACS website for data access.
Please direct all questions to the IBTrACS Q and A forum

Storm track - Intensity - Wind Radii - Intensity Data - Source Data - All data

Summary Information

Storm ID 1871237N18325
Start Aug 24 12Z
Max Intensity 80 kt (Aug 28 00Z)
End Sep 1 12Z
ATCF IDs
Track status Best track data.

Storm track plot

Map of storm track

Intensity plots

Map of storm track

Radial wind information

No radial wind information for this storm


Position and Intensity Table

BASIN ISO_TIME_________ NATURE LAT LON MLC WIND
degrees north degrees east kts
NA 1871-08-24 12:00:00 TS 17.50 -35.00 35
NA 15:00:00 TS 17.86 -35.41 35
NA 18:00:00 TS 18.20 -35.80 35
NA 21:00:00 TS 18.51 -36.15 37
NA 1871-08-25 00:00:00 TS 18.80 -36.50 40
NA 03:00:00 TS 19.10 -36.90 40
NA 06:00:00 TS 19.40 -37.30 40
NA 09:00:00 TS 19.69 -37.65 42
NA 12:00:00 TS 20.00 -38.00 45
NA 15:00:00 TS 20.35 -38.40 47
NA 18:00:00 TS 20.70 -38.80 50
NA 21:00:00 TS 21.01 -39.15 52
NA 1871-08-26 00:00:00 TS 21.30 -39.50 55
NA 03:00:00 TS 21.60 -39.90 57
NA 06:00:00 TS 21.90 -40.30 60
NA 09:00:00 TS 22.19 -40.67 60
NA 12:00:00 TS 22.50 -41.00 60
NA 15:00:00 TS 22.85 -41.31 65
NA 18:00:00 TS 23.20 -41.60 70
NA 21:00:00 TS 23.51 -41.90 72
NA 1871-08-27 00:00:00 TS 23.80 -42.20 75
NA 03:00:00 TS 24.10 -42.50 75
NA 06:00:00 TS 24.40 -42.80 75
NA 09:00:00 TS 24.72 -43.12 75
NA 12:00:00 TS 25.00 -43.40 75
NA 15:00:00 TS 25.21 -43.57 75
NA 18:00:00 TS 25.40 -43.70 75
NA 21:00:00 TS 25.60 -43.85 77
NA 1871-08-28 00:00:00 TS 25.80 -44.00 80
NA 03:00:00 TS 26.01 -44.16 80
NA 06:00:00 TS 26.20 -44.30 80
NA 09:00:00 TS 26.36 -44.42 80
NA 12:00:00 TS 26.50 -44.50 80
NA 15:00:00 TS 26.66 -44.52 80
NA 18:00:00 TS 26.80 -44.50 80
NA 21:00:00 TS 26.90 -44.50 77
NA 1871-08-29 00:00:00 TS 27.00 -44.50 75
NA 03:00:00 TS 27.15 -44.50 75
NA 06:00:00 TS 27.30 -44.50 75
NA 09:00:00 TS 27.41 -44.51 75
NA 12:00:00 TS 27.50 -44.50 75
NA 15:00:00 TS 27.61 -44.47 75
NA 18:00:00 TS 27.70 -44.40 75
NA 21:00:00 TS 27.76 -44.30 75
NA 1871-08-30 00:00:00 TS 27.80 -44.20 75
NA 03:00:00 TS 27.85 -44.14 75
NA 06:00:00 TS 27.90 -44.10 75
NA 09:00:00 TS 27.92 -44.12 75
NA 12:00:00 TS 28.00 -44.00 75
NA 15:00:00 TS 28.22 -43.57 72
NA 18:00:00 TS 28.50 -43.00 70
NA 21:00:00 TS 28.75 -42.50 67
NA 1871-08-31 00:00:00 TS 29.00 -42.00 65
NA 03:00:00 TS 29.25 -41.50 57
NA 06:00:00 TS 29.50 -41.00 50
NA 09:00:00 TS 29.68 -40.51 45
NA 12:00:00 TS 30.00 -40.00 40
NA 15:00:00 TS 30.63 -39.41 37
NA 18:00:00 TS 31.40 -38.80 35
NA 21:00:00 TS 32.10 -38.23 32
NA 1871-09-01 00:00:00 TS 32.80 -37.70 30
NA 03:00:00 TS 33.51 -37.26 30
NA 06:00:00 TS 34.20 -36.80 30
NA 09:00:00 TS 34.86 -36.20 30
NA 12:00:00 TS 35.50 -35.50 30

Source Information

Agency Information
USA
TOKYO
CMA
HKO
NEWDELHI
REUNION
BOM
NADI
WELLINGTON
DS824
TD9636
TD9635
NEUMANN
MLC

All available IBTrACS Data

SEASON BASIN SUBBASIN ISO_TIME_________ NATURE LAT LON DIST2LAND LANDFALL IFLAG USA SSHS MLC LAT MLC LON MLC CLASS MLC WIND STORM SPEED STORM DIR
Year degrees north degrees east km km 1 degrees north degrees east kts kts degrees
1871 NA NA 1871-08-24 12:00:00 TS 17.50 -35.00 1895 1895 _____________O -1 17.50 -35.00 TS 35 11 312
1871 NA NA 15:00:00 TS 17.86 -35.41 1943 1943 _____________P -1 17.86 -35.41 TS 35 10 313
1871 NA NA 18:00:00 TS 18.20 -35.80 1980 1980 _____________O -1 18.20 -35.80 TS 35 10 313
1871 NA NA 21:00:00 TS 18.51 -36.15 2015 2013 _____________P -1 18.51 -36.15 TS 37 9 312
1871 NA NA 1871-08-25 00:00:00 TS 18.80 -36.50 2040 2040 _____________O -1 18.80 -36.50 TS 40 9 310
1871 NA NA 03:00:00 TS 19.10 -36.90 2076 2076 _____________P -1 19.10 -36.90 TS 40 10 308
1871 NA NA 06:00:00 TS 19.40 -37.30 2113 2113 _____________O -1 19.40 -37.30 TS 40 9 310
1871 NA NA 09:00:00 TS 19.69 -37.65 2150 2149 _____________P -1 19.69 -37.65 TS 42 9 312
1871 NA NA 12:00:00 TS 20.00 -38.00 2178 2178 _____________O -1 20.00 -38.00 TS 45 10 313
1871 NA NA 15:00:00 TS 20.35 -38.40 2215 2215 _____________P -1 20.35 -38.40 TS 47 10 313
1871 NA NA 18:00:00 TS 20.70 -38.80 2254 2254 _____________O -1 20.70 -38.80 TS 50 10 313
1871 NA NA 21:00:00 TS 21.01 -39.15 2281 2281 _____________P -1 21.01 -39.15 TS 52 9 313
1871 NA NA 1871-08-26 00:00:00 TS 21.30 -39.50 2290 2283 _____________O -1 21.30 -39.50 TS 55 9 310
1871 NA NA 03:00:00 TS 21.60 -39.90 2290 2286 _____________P -1 21.60 -39.90 TS 57 10 309
1871 NA NA 06:00:00 TS 21.90 -40.30 2291 2285 _____________O -1 21.90 -40.30 TS 60 9 310
1871 NA NA 09:00:00 TS 22.19 -40.67 2293 2293 _____________P -1 22.19 -40.67 TS 60 9 313
1871 NA NA 12:00:00 TS 22.50 -41.00 2303 2303 _____________O -1 22.50 -41.00 TS 60 9 318
1871 NA NA 15:00:00 TS 22.85 -41.31 2314 2314 _____________P -1 22.85 -41.31 TS 65 9 322
1871 NA NA 18:00:00 TS 23.20 -41.60 2335 2335 _____________O -1 23.20 -41.60 HU 70 9 320
1871 NA NA 21:00:00 TS 23.51 -41.90 2347 2347 _____________P -1 23.51 -41.90 HU 72 8 318
1871 NA NA 1871-08-27 00:00:00 TS 23.80 -42.20 2361 2356 _____________O -1 23.80 -42.20 HU 75 8 317
1871 NA NA 03:00:00 TS 24.10 -42.50 2375 2375 _____________P -1 24.10 -42.50 HU 75 8 318
1871 NA NA 06:00:00 TS 24.40 -42.80 2390 2390 _____________O -1 24.40 -42.80 HU 75 8 317
1871 NA NA 09:00:00 TS 24.72 -43.12 2405 2401 _____________P -1 24.72 -43.12 HU 75 8 318
1871 NA NA 12:00:00 TS 25.00 -43.40 2405 2390 _____________O -1 25.00 -43.40 HU 75 6 321
1871 NA NA 15:00:00 TS 25.21 -43.57 2390 2383 _____________P -1 25.21 -43.57 HU 75 5 326
1871 NA NA 18:00:00 TS 25.40 -43.70 2386 2379 _____________O -1 25.40 -43.70 HU 75 5 327
1871 NA NA 21:00:00 TS 25.60 -43.85 2373 2366 _____________P -1 25.60 -43.85 HU 77 5 326
1871 NA NA 1871-08-28 00:00:00 TS 25.80 -44.00 2369 2363 _____________O -1 25.80 -44.00 HU 80 5 326
1871 NA NA 03:00:00 TS 26.01 -44.16 2356 2350 _____________P -1 26.01 -44.16 HU 80 5 326
1871 NA NA 06:00:00 TS 26.20 -44.30 2353 2347 _____________O -1 26.20 -44.30 HU 80 4 326
1871 NA NA 09:00:00 TS 26.36 -44.42 2350 2341 _____________P -1 26.36 -44.42 HU 80 4 329
1871 NA NA 12:00:00 TS 26.50 -44.50 2344 2344 _____________O -1 26.50 -44.50 HU 80 3 346
1871 NA NA 15:00:00 TS 26.66 -44.52 2344 2333 _____________P -1 26.66 -44.52 HU 80 3 0
1871 NA NA 18:00:00 TS 26.80 -44.50 2333 2323 _____________O -1 26.80 -44.50 HU 80 2 6
1871 NA NA 21:00:00 TS 26.90 -44.50 2323 2312 _____________P -1 26.90 -44.50 HU 77 2 8
1871 NA NA 1871-08-29 00:00:00 TS 27.00 -44.50 2312 2301 _____________O -1 27.00 -44.50 HU 75 3 2
1871 NA NA 03:00:00 TS 27.15 -44.50 2291 2280 _____________P -1 27.15 -44.50 HU 75 3 0
1871 NA NA 06:00:00 TS 27.30 -44.50 2280 2269 _____________O -1 27.30 -44.50 HU 75 3 0
1871 NA NA 09:00:00 TS 27.41 -44.51 2269 2259 _____________P -1 27.41 -44.51 HU 75 2 8
1871 NA NA 12:00:00 TS 27.50 -44.50 2259 2248 _____________O -1 27.50 -44.50 HU 75 2 13
1871 NA NA 15:00:00 TS 27.61 -44.47 2248 2240 _____________P -1 27.61 -44.47 HU 75 2 25
1871 NA NA 18:00:00 TS 27.70 -44.40 2240 2233 _____________O -1 27.70 -44.40 HU 75 2 44
1871 NA NA 21:00:00 TS 27.76 -44.30 2233 2233 _____________P -1 27.76 -44.30 HU 75 2 60
1871 NA NA 1871-08-30 00:00:00 TS 27.80 -44.20 2236 2236 _____________O -1 27.80 -44.20 HU 75 2 55
1871 NA NA 03:00:00 TS 27.85 -44.14 2239 2228 _____________P -1 27.85 -44.14 HU 75 1 40
1871 NA NA 06:00:00 TS 27.90 -44.10 2228 2228 _____________O -1 27.90 -44.10 HU 75 1 0
1871 NA NA 09:00:00 TS 27.92 -44.12 2228 2217 _____________P -1 27.92 -44.12 HU 75 1 40
1871 NA NA 12:00:00 TS 28.00 -44.00 2221 2209 _____________O -1 28.00 -44.00 HU 75 6 58
1871 NA NA 15:00:00 TS 28.22 -43.57 2212 2198 _____________P -1 28.22 -43.57 HU 72 10 60
1871 NA NA 18:00:00 TS 28.50 -43.00 2201 2191 _____________O -1 28.50 -43.00 HU 70 11 61
1871 NA NA 21:00:00 TS 28.75 -42.50 2198 2182 _____________P -1 28.75 -42.50 HU 67 10 60
1871 NA NA 1871-08-31 00:00:00 TS 29.00 -42.00 2186 2177 _____________O -1 29.00 -42.00 HU 65 10 60
1871 NA NA 03:00:00 TS 29.25 -41.50 2185 2171 _____________P -1 29.25 -41.50 HU 57 10 60
1871 NA NA 06:00:00 TS 29.50 -41.00 2175 2172 _____________O -1 29.50 -41.00 TS 50 10 63
1871 NA NA 09:00:00 TS 29.68 -40.51 2177 2169 _____________P -1 29.68 -40.51 TS 45 10 60
1871 NA NA 12:00:00 TS 30.00 -40.00 2169 2133 _____________O -1 30.00 -40.00 TS 40 14 45
1871 NA NA 15:00:00 TS 30.63 -39.41 2138 2091 _____________P -1 30.63 -39.41 TS 37 17 36
1871 NA NA 18:00:00 TS 31.40 -38.80 2091 2050 _____________O -1 31.40 -38.80 TS 35 18 34
1871 NA NA 21:00:00 TS 32.10 -38.23 2056 2019 _____________P -1 32.10 -38.23 TS 32 17 34
1871 NA NA 1871-09-01 00:00:00 TS 32.80 -37.70 2019 1978 _____________O -1 32.80 -37.70 TD 30 16 30
1871 NA NA 03:00:00 TS 33.51 -37.26 1978 1947 _____________P -1 33.51 -37.26 TD 30 16 28
1871 NA NA 06:00:00 TS 34.20 -36.80 1947 1926 _____________O -1 34.20 -36.80 TD 30 16 33
1871 NA NA 09:00:00 TS 34.86 -36.20 1924 1914 _____________P -1 34.86 -36.20 TD 30 17 39
1871 NA NA 12:00:00 TS 35.50 -35.50 1919 _____________O -1 35.50 -35.50 TD 30 17 42